LSZR/ACH METAR and TAF weather

Enter ICAO airport designator
Station Type Date Time Source
LSZR METAR 2019/12/08 11:20 UTC NOAA

LSZR 081120Z 09004KT CAVOK 10/04 Q1015 NOSIG RMK C


Station Type Date Time Source
LSZR Decoded METAR 2019/12/08 11:20 UTC NOAA

Saint Gallen-Altenrhein, Switzerland (LSZR) 47-29-06N 009-33-43E
Dec 08, 2019 - 06:20 AM EST / 2019.12.08 1120 UTC
Wind: from the E (090 degrees) at 5 MPH (4 KT):0
Visibility: greater than 7 mile(s):0
Temperature: 50 F (10 C)
Dew Point: 39 F (4 C)
Relative Humidity: 66%
Pressure (altimeter): 29.97 in. Hg (1015 hPa)
ob: LSZR 081120Z 09004KT CAVOK 10/04 Q1015 NOSIG RMK C
cycle: 11

Station Type Date Time Source
LSZR TAF 2014/12/22 20:03 UTC NOAA

TAF
AMD LSZR 222054Z 2220/2224 CNL

Example: see airport list